sensor_id;sensor_type;location;lat;lon;timestamp;pressure;altitude;pressure_sealevel;temperature;humidity
39435;BME280;66825;51.880;-0.518;2023-01-31T00:00:07;101668.53;;;14.85;39.52
39435;BME280;66825;51.880;-0.518;2023-01-31T00:02:33;101687.13;;;14.99;39.72
39435;BME280;66825;51.880;-0.518;2023-01-31T00:04:59;101685.50;;;14.98;39.67
39435;BME280;66825;51.880;-0.518;2023-01-31T00:07:25;101671.13;;;14.97;39.71
39435;BME280;66825;51.880;-0.518;2023-01-31T00:09:50;101652.59;;;14.94;39.62
39435;BME280;66825;51.880;-0.518;2023-01-31T00:12:16;101643.88;;;14.92;39.43
39435;BME280;66825;51.880;-0.518;2023-01-31T00:14:41;101642.00;;;14.92;40.01
39435;BME280;66825;51.880;-0.518;2023-01-31T00:17:07;101631.34;;;14.86;39.62
39435;BME280;66825;51.880;-0.518;2023-01-31T00:19:32;101639.03;;;14.94;39.81
39435;BME280;66825;51.880;-0.518;2023-01-31T00:21:58;101647.44;;;14.92;39.79
39435;BME280;66825;51.880;-0.518;2023-01-31T00:24:23;101637.03;;;14.84;39.68
39435;BME280;66825;51.880;-0.518;2023-01-31T00:26:49;101636.81;;;14.91;39.80
39435;BME280;66825;51.880;-0.518;2023-01-31T00:29:24;101638.72;;;14.90;39.74
39435;BME280;66825;51.880;-0.518;2023-01-31T00:31:50;101496.56;;;14.03;39.74
39435;BME280;66825;51.880;-0.518;2023-01-31T00:34:16;101642.78;;;14.88;39.56
39435;BME280;66825;51.880;-0.518;2023-01-31T00:36:41;101556.94;;;14.37;39.79
39435;BME280;66825;51.880;-0.518;2023-01-31T00:39:08;101616.84;;;14.75;40.01
39435;BME280;66825;51.880;-0.518;2023-01-31T00:41:36;101605.59;;;14.66;40.09
39435;BME280;66825;51.880;-0.518;2023-01-31T00:44:02;101557.16;;;14.36;39.73
39435;BME280;66825;51.880;-0.518;2023-01-31T00:46:28;101628.88;;;14.84;39.64
39435;BME280;66825;51.880;-0.518;2023-01-31T00:48:54;101632.66;;;14.83;39.72
39435;BME280;66825;51.880;-0.518;2023-01-31T00:51:21;101611.41;;;14.75;39.56
39435;BME280;66825;51.880;-0.518;2023-01-31T00:53:47;101642.72;;;14.83;39.66
39435;BME280;66825;51.880;-0.518;2023-01-31T00:56:15;101641.88;;;14.82;39.99
39435;BME280;66825;51.880;-0.518;2023-01-31T00:58:42;101636.72;;;14.81;39.91
39435;BME280;66825;51.880;-0.518;2023-01-31T01:01:23;101546.28;;;14.30;39.72
39435;BME280;66825;51.880;-0.518;2023-01-31T01:03:49;101614.97;;;14.75;40.02
39435;BME280;66825;51.880;-0.518;2023-01-31T01:06:15;101626.13;;;14.79;39.79
39435;BME280;66825;51.880;-0.518;2023-01-31T01:08:41;101592.03;;;14.66;39.98
39435;BME280;66825;51.880;-0.518;2023-01-31T01:11:11;101587.59;;;14.60;39.98
39435;BME280;66825;51.880;-0.518;2023-01-31T01:13:38;101511.88;;;14.14;39.45
39435;BME280;66825;51.880;-0.518;2023-01-31T01:16:06;101618.47;;;14.76;39.75
39435;BME280;66825;51.880;-0.518;2023-01-31T01:18:32;101598.19;;;14.61;39.80
39435;BME280;66825;51.880;-0.518;2023-01-31T01:21:11;101518.91;;;14.10;39.81
39435;BME280;66825;51.880;-0.518;2023-01-31T01:23:38;101617.91;;;14.74;39.89
39435;BME280;66825;51.880;-0.518;2023-01-31T01:26:05;101594.75;;;14.66;39.53
39435;BME280;66825;51.880;-0.518;2023-01-31T01:28:34;101500.72;;;14.10;39.87
39435;BME280;66825;51.880;-0.518;2023-01-31T01:31:07;101559.53;;;14.49;39.96
39435;BME280;66825;51.880;-0.518;2023-01-31T01:33:33;101594.00;;;14.71;39.61
39435;BME280;66825;51.880;-0.518;2023-01-31T01:36:04;101604.84;;;14.71;39.72
39435;BME280;66825;51.880;-0.518;2023-01-31T01:38:30;101604.03;;;14.70;39.99
39435;BME280;66825;51.880;-0.518;2023-01-31T01:40:57;101598.84;;;14.69;39.51
39435;BME280;66825;51.880;-0.518;2023-01-31T01:43:55;101596.13;;;14.69;39.53
39435;BME280;66825;51.880;-0.518;2023-01-31T01:46:23;101582.84;;;14.67;39.84
39435;BME280;66825;51.880;-0.518;2023-01-31T01:48:54;101480.91;;;14.05;40.00
39435;BME280;66825;51.880;-0.518;2023-01-31T01:51:21;101574.94;;;14.66;39.93
39435;BME280;66825;51.880;-0.518;2023-01-31T01:53:51;101576.00;;;14.65;39.67
39435;BME280;66825;51.880;-0.518;2023-01-31T01:56:23;101550.31;;;14.50;39.42
39435;BME280;66825;51.880;-0.518;2023-01-31T02:04:39;101473.78;;;13.98;39.55
39435;BME280;66825;51.880;-0.518;2023-01-31T02:07:08;101568.31;;;14.56;39.90
39435;BME280;66825;51.880;-0.518;2023-01-31T02:09:50;101545.91;;;14.44;39.72
39435;BME280;66825;51.880;-0.518;2023-01-31T02:12:18;101447.59;;;13.87;39.93
39435;BME280;66825;51.880;-0.518;2023-01-31T02:14:44;101555.28;;;14.58;39.80
39435;BME280;66825;51.880;-0.518;2023-01-31T02:17:17;101454.22;;;13.96;39.58
39435;BME280;66825;51.880;-0.518;2023-01-31T02:22:35;101524.47;;;14.42;39.98
39435;BME280;66825;51.880;-0.518;2023-01-31T02:41:49;101337.84;;;13.40;40.22
39435;BME280;66825;51.880;-0.518;2023-01-31T02:44:20;101511.28;;;14.51;39.78
39435;BME280;66825;51.880;-0.518;2023-01-31T02:52:47;101413.41;;;13.81;39.64
39435;BME280;66825;51.880;-0.518;2023-01-31T02:59:01;101527.50;;;14.46;39.66
39435;BME280;66825;51.880;-0.518;2023-01-31T03:01:32;101525.84;;;14.45;39.66
39435;BME280;66825;51.880;-0.518;2023-01-31T03:04:05;101435.75;;;13.93;39.62
39435;BME280;66825;51.880;-0.518;2023-01-31T03:11:39;101479.69;;;14.18;39.81
39435;BME280;66825;51.880;-0.518;2023-01-31T03:17:13;101521.75;;;14.42;39.57
39435;BME280;66825;51.880;-0.518;2023-01-31T03:22:53;101492.94;;;14.36;40.06
39435;BME280;66825;51.880;-0.518;2023-01-31T03:25:18;101489.41;;;14.36;39.93
39435;BME280;66825;51.880;-0.518;2023-01-31T03:27:47;101495.97;;;14.40;39.64
39435;BME280;66825;51.880;-0.518;2023-01-31T03:30:20;101473.59;;;14.27;39.95
39435;BME280;66825;51.880;-0.518;2023-01-31T03:32:52;101488.59;;;14.35;39.75
39435;BME280;66825;51.880;-0.518;2023-01-31T03:35:23;101482.66;;;14.38;40.12
39435;BME280;66825;51.880;-0.518;2023-01-31T03:40:37;101468.09;;;14.22;40.05
39435;BME280;66825;51.880;-0.518;2023-01-31T03:46:06;101513.56;;;14.37;40.06
39435;BME280;66825;51.880;-0.518;2023-01-31T03:48:37;101499.16;;;14.37;40.10
39435;BME280;66825;51.880;-0.518;2023-01-31T03:51:07;101502.94;;;14.36;39.66
39435;BME280;66825;51.880;-0.518;2023-01-31T03:54:03;101461.41;;;14.08;40.04
39435;BME280;66825;51.880;-0.518;2023-01-31T03:56:35;101474.22;;;14.12;39.74
39435;BME280;66825;51.880;-0.518;2023-01-31T03:59:07;101498.63;;;14.35;39.57
39435;BME280;66825;51.880;-0.518;2023-01-31T04:01:35;101479.25;;;14.26;39.95
39435;BME280;66825;51.880;-0.518;2023-01-31T04:04:11;101406.34;;;13.80;40.07
39435;BME280;66825;51.880;-0.518;2023-01-31T04:06:38;101388.31;;;13.69;40.06
39435;BME280;66825;51.880;-0.518;2023-01-31T04:09:04;101470.25;;;14.20;39.85
39435;BME280;66825;51.880;-0.518;2023-01-31T04:11:36;101479.56;;;14.29;39.82
39435;BME280;66825;51.880;-0.518;2023-01-31T04:14:02;101389.13;;;13.69;39.74
39435;BME280;66825;51.880;-0.518;2023-01-31T04:16:28;101464.31;;;14.23;39.69
39435;BME280;66825;51.880;-0.518;2023-01-31T04:18:53;101457.47;;;14.16;40.08
39435;BME280;66825;51.880;-0.518;2023-01-31T04:21:21;101447.63;;;14.09;40.10
39435;BME280;66825;51.880;-0.518;2023-01-31T04:23:47;101471.44;;;14.29;39.64
39435;BME280;66825;51.880;-0.518;2023-01-31T04:26:13;101368.22;;;13.64;39.80
39435;BME280;66825;51.880;-0.518;2023-01-31T04:28:39;101458.09;;;14.23;39.98
39435;BME280;66825;51.880;-0.518;2023-01-31T04:31:04;101465.97;;;14.24;39.92
39435;BME280;66825;51.880;-0.518;2023-01-31T04:33:30;101393.81;;;13.74;39.75
39435;BME280;66825;51.880;-0.518;2023-01-31T04:35:55;101474.84;;;14.20;40.14
39435;BME280;66825;51.880;-0.518;2023-01-31T04:38:21;101481.16;;;14.25;40.04
39435;BME280;66825;51.880;-0.518;2023-01-31T04:40:46;101363.22;;;13.56;40.20
39435;BME280;66825;51.880;-0.518;2023-01-31T04:43:12;101471.97;;;14.26;40.07
39435;BME280;66825;51.880;-0.518;2023-01-31T04:45:37;101464.84;;;14.20;39.92
39435;BME280;66825;51.880;-0.518;2023-01-31T04:48:03;101454.44;;;14.12;40.06
39435;BME280;66825;51.880;-0.518;2023-01-31T04:50:29;101382.00;;;13.63;39.96
39435;BME280;66825;51.880;-0.518;2023-01-31T04:52:54;101484.13;;;14.24;40.04
39435;BME280;66825;51.880;-0.518;2023-01-31T04:55:20;101453.59;;;14.11;40.24
39435;BME280;66825;51.880;-0.518;2023-01-31T04:57:45;101460.81;;;14.23;40.00
39435;BME280;66825;51.880;-0.518;2023-01-31T05:00:13;101461.88;;;14.22;39.56
39435;BME280;66825;51.880;-0.518;2023-01-31T05:02:38;101462.66;;;14.22;39.53
39435;BME280;66825;51.880;-0.518;2023-01-31T05:05:04;101448.81;;;14.19;39.99
39435;BME280;66825;51.880;-0.518;2023-01-31T05:07:30;101350.44;;;13.52;39.88
39435;BME280;66825;51.880;-0.518;2023-01-31T05:09:55;101447.75;;;14.20;39.93
39435;BME280;66825;51.880;-0.518;2023-01-31T05:12:21;101445.88;;;14.20;39.55
39435;BME280;66825;51.880;-0.518;2023-01-31T05:14:46;101382.72;;;13.75;39.79
39435;BME280;66825;51.880;-0.518;2023-01-31T05:17:12;101456.13;;;14.18;39.90
39435;BME280;66825;51.880;-0.518;2023-01-31T05:19:38;101450.97;;;14.17;40.07
39435;BME280;66825;51.880;-0.518;2023-01-31T05:22:03;101437.91;;;14.13;40.01
39435;BME280;66825;51.880;-0.518;2023-01-31T05:24:30;101369.38;;;13.69;40.19
39435;BME280;66825;51.880;-0.518;2023-01-31T05:26:57;101441.75;;;14.18;40.14
39435;BME280;66825;51.880;-0.518;2023-01-31T05:29:27;101441.19;;;14.16;40.03
39435;BME280;66825;51.880;-0.518;2023-01-31T05:31:55;101444.72;;;14.16;40.20
39435;BME280;66825;51.880;-0.518;2023-01-31T05:34:22;101317.25;;;13.39;40.38
39435;BME280;66825;51.880;-0.518;2023-01-31T05:36:52;101350.09;;;13.65;39.68
39435;BME280;66825;51.880;-0.518;2023-01-31T05:39:18;101405.53;;;14.02;40.07
39435;BME280;66825;51.880;-0.518;2023-01-31T05:41:43;101421.66;;;14.13;40.16
39435;BME280;66825;51.880;-0.518;2023-01-31T05:44:09;101418.94;;;14.13;39.91
39435;BME280;66825;51.880;-0.518;2023-01-31T05:46:39;101406.47;;;14.12;39.88
39435;BME280;66825;51.880;-0.518;2023-01-31T05:49:04;101405.06;;;14.10;40.05
39435;BME280;66825;51.880;-0.518;2023-01-31T05:51:30;101407.28;;;14.13;40.03
39435;BME280;66825;51.880;-0.518;2023-01-31T05:53:56;101388.19;;;14.03;39.95
39435;BME280;66825;51.880;-0.518;2023-01-31T05:56:22;101398.59;;;14.11;39.66
39435;BME280;66825;51.880;-0.518;2023-01-31T05:58:48;101396.69;;;14.11;40.05
39435;BME280;66825;51.880;-0.518;2023-01-31T06:01:19;101404.00;;;14.11;40.24
39435;BME280;66825;51.880;-0.518;2023-01-31T06:03:45;101404.00;;;14.11;39.88
39435;BME280;66825;51.880;-0.518;2023-01-31T06:06:11;101379.44;;;13.95;40.09
39435;BME280;66825;51.880;-0.518;2023-01-31T06:08:37;101290.19;;;13.39;40.06
39435;BME280;66825;51.880;-0.518;2023-01-31T06:11:03;101380.50;;;13.94;39.82
39435;BME280;66825;51.880;-0.518;2023-01-31T06:13:30;101298.94;;;13.46;39.99
39435;BME280;66825;51.880;-0.518;2023-01-31T06:15:55;101394.25;;;14.10;39.90
39435;BME280;66825;51.880;-0.518;2023-01-31T06:18:21;101308.59;;;13.59;39.93
39435;BME280;66825;51.880;-0.518;2023-01-31T06:20:46;101393.66;;;14.08;40.03
39435;BME280;66825;51.880;-0.518;2023-01-31T06:23:12;101391.78;;;14.08;40.02
39435;BME280;66825;51.880;-0.518;2023-01-31T06:25:37;101376.03;;;14.05;40.15
39435;BME280;66825;51.880;-0.518;2023-01-31T06:28:03;101389.31;;;14.07;40.51
39435;BME280;66825;51.880;-0.518;2023-01-31T06:30:29;101382.28;;;14.06;40.14
39435;BME280;66825;51.880;-0.518;2023-01-31T06:32:54;101378.72;;;14.05;39.83
39435;BME280;66825;51.880;-0.518;2023-01-31T06:35:20;101374.97;;;14.06;40.05
39435;BME280;66825;51.880;-0.518;2023-01-31T06:37:45;101363.31;;;14.06;40.08
39435;BME280;66825;51.880;-0.518;2023-01-31T06:40:11;101341.16;;;13.87;40.22
39435;BME280;66825;51.880;-0.518;2023-01-31T06:42:36;101371.44;;;14.06;40.24
39435;BME280;66825;51.880;-0.518;2023-01-31T06:45:02;101343.59;;;13.88;40.10
39435;BME280;66825;51.880;-0.518;2023-01-31T06:47:28;101372.75;;;14.03;40.15
39435;BME280;66825;51.880;-0.518;2023-01-31T06:49:53;101359.16;;;13.98;39.86
39435;BME280;66825;51.880;-0.518;2023-01-31T06:52:19;101341.47;;;13.90;40.32
39435;BME280;66825;51.880;-0.518;2023-01-31T06:54:44;101351.28;;;13.96;40.10
39435;BME280;66825;51.880;-0.518;2023-01-31T06:57:09;101324.28;;;13.79;40.01
39435;BME280;66825;51.880;-0.518;2023-01-31T06:59:35;101266.66;;;13.40;39.95
39435;BME280;66825;51.880;-0.518;2023-01-31T07:02:00;101357.75;;;13.95;40.38
39435;BME280;66825;51.880;-0.518;2023-01-31T07:04:26;101285.66;;;13.45;40.28
39435;BME280;66825;51.880;-0.518;2023-01-31T07:06:51;101358.34;;;13.97;39.92
39435;BME280;66825;51.880;-0.518;2023-01-31T07:09:17;101355.63;;;13.97;39.96
39435;BME280;66825;51.880;-0.518;2023-01-31T07:11:42;101356.38;;;13.93;39.94
39435;BME280;66825;51.880;-0.518;2023-01-31T07:14:08;101358.06;;;13.99;40.03
39435;BME280;66825;51.880;-0.518;2023-01-31T07:16:33;101350.13;;;13.92;40.19
39435;BME280;66825;51.880;-0.518;2023-01-31T07:18:59;101376.25;;;13.98;40.31
39435;BME280;66825;51.880;-0.518;2023-01-31T07:21:24;101361.81;;;13.93;40.27
39435;BME280;66825;51.880;-0.518;2023-01-31T07:23:51;101349.44;;;13.80;39.92
39435;BME280;66825;51.880;-0.518;2023-01-31T07:26:16;101371.00;;;13.92;39.75
39435;BME280;66825;51.880;-0.518;2023-01-31T07:28:42;101368.03;;;13.93;40.14
39435;BME280;66825;51.880;-0.518;2023-01-31T07:31:11;101271.72;;;13.36;39.96
39435;BME280;66825;51.880;-0.518;2023-01-31T07:33:37;101347.09;;;13.89;40.51
39435;BME280;66825;51.880;-0.518;2023-01-31T07:36:04;101343.59;;;13.88;40.36
39435;BME280;66825;51.880;-0.518;2023-01-31T07:38:31;101343.09;;;13.91;40.20
39435;BME280;66825;51.880;-0.518;2023-01-31T07:41:01;101345.91;;;14.02;40.39
39435;BME280;66825;51.880;-0.518;2023-01-31T07:43:31;101351.91;;;14.04;40.53
39435;BME280;66825;51.880;-0.518;2023-01-31T07:45:57;101253.75;;;13.47;40.87
39435;BME280;66825;51.880;-0.518;2023-01-31T07:48:22;101173.84;;;13.00;40.40
39435;BME280;66825;51.880;-0.518;2023-01-31T07:50:52;101271.88;;;13.69;40.32
39435;BME280;66825;51.880;-0.518;2023-01-31T07:53:18;101322.28;;;13.97;40.58
39435;BME280;66825;51.880;-0.518;2023-01-31T07:55:44;101355.09;;;14.23;40.37
39435;BME280;66825;51.880;-0.518;2023-01-31T07:58:14;101276.28;;;13.75;40.13
39435;BME280;66825;51.880;-0.518;2023-01-31T08:00:40;101267.84;;;13.71;40.60
39435;BME280;66825;51.880;-0.518;2023-01-31T08:03:28;101361.97;;;14.36;40.54
39435;BME280;66825;51.880;-0.518;2023-01-31T08:05:59;101265.47;;;13.80;40.86
39435;BME280;66825;51.880;-0.518;2023-01-31T08:08:24;101364.22;;;14.44;40.35
39435;BME280;66825;51.880;-0.518;2023-01-31T08:10:50;101366.44;;;14.47;40.36
39435;BME280;66825;51.880;-0.518;2023-01-31T08:13:15;101361.31;;;14.51;40.28
39435;BME280;66825;51.880;-0.518;2023-01-31T08:15:41;101198.53;;;13.48;40.08
39435;BME280;66825;51.880;-0.518;2023-01-31T08:18:06;101254.81;;;13.95;40.61
39435;BME280;66825;51.880;-0.518;2023-01-31T08:20:32;101359.53;;;14.61;40.40
39435;BME280;66825;51.880;-0.518;2023-01-31T08:22:57;101361.78;;;14.70;40.29
39435;BME280;66825;51.880;-0.518;2023-01-31T08:25:25;101359.88;;;14.70;40.12
39435;BME280;66825;51.880;-0.518;2023-01-31T08:27:53;101275.66;;;14.22;40.21
39435;BME280;66825;51.880;-0.518;2023-01-31T08:30:19;101316.13;;;14.61;40.18
39435;BME280;66825;51.880;-0.518;2023-01-31T08:32:44;101334.78;;;14.85;40.09
39435;BME280;66825;51.880;-0.518;2023-01-31T08:35:10;101344.38;;;14.98;40.09
39435;BME280;66825;51.880;-0.518;2023-01-31T08:37:35;101338.16;;;15.03;39.84
39435;BME280;66825;51.880;-0.518;2023-01-31T08:40:01;101336.31;;;15.08;39.81
39435;BME280;66825;51.880;-0.518;2023-01-31T08:42:26;101331.72;;;15.14;39.78
39435;BME280;66825;51.880;-0.518;2023-01-31T08:44:52;101343.44;;;15.20;39.78
39435;BME280;66825;51.880;-0.518;2023-01-31T08:47:17;101341.28;;;15.22;39.66
39435;BME280;66825;51.880;-0.518;2023-01-31T08:49:42;101334.25;;;15.26;39.71
39435;BME280;66825;51.880;-0.518;2023-01-31T08:52:08;101338.63;;;15.32;39.63
39435;BME280;66825;51.880;-0.518;2023-01-31T08:54:33;101335.41;;;15.40;39.61
39435;BME280;66825;51.880;-0.518;2023-01-31T08:56:59;101240.38;;;14.87;39.52
39435;BME280;66825;51.880;-0.518;2023-01-31T08:59:24;101334.09;;;15.48;39.55
39435;BME280;66825;51.880;-0.518;2023-01-31T09:01:50;101309.59;;;15.38;39.33
39435;BME280;66825;51.880;-0.518;2023-01-31T09:04:15;101328.66;;;15.53;39.34
39435;BME280;66825;51.880;-0.518;2023-01-31T09:06:40;101320.53;;;15.53;39.46
39435;BME280;66825;51.880;-0.518;2023-01-31T09:09:06;101339.06;;;15.67;39.83
39435;BME280;66825;51.880;-0.518;2023-01-31T09:11:31;101326.31;;;15.72;39.94
39435;BME280;66825;51.880;-0.518;2023-01-31T09:13:57;101246.25;;;15.17;40.22
39435;BME280;66825;51.880;-0.518;2023-01-31T09:16:23;101337.72;;;15.75;41.59
39435;BME280;66825;51.880;-0.518;2023-01-31T09:18:48;101347.31;;;15.87;42.54
39435;BME280;66825;51.880;-0.518;2023-01-31T09:21:19;101340.25;;;15.86;41.69
39435;BME280;66825;51.880;-0.518;2023-01-31T09:23:45;101344.91;;;16.01;41.90
39435;BME280;66825;51.880;-0.518;2023-01-31T09:26:11;101362.88;;;16.08;42.61
39435;BME280;66825;51.880;-0.518;2023-01-31T09:28:37;101370.78;;;16.09;42.84
39435;BME280;66825;51.880;-0.518;2023-01-31T09:31:11;101311.41;;;15.80;42.74
39435;BME280;66825;51.880;-0.518;2023-01-31T09:33:37;101374.88;;;16.27;42.68
39435;BME280;66825;51.880;-0.518;2023-01-31T09:36:07;101367.53;;;16.28;43.36
39435;BME280;66825;51.880;-0.518;2023-01-31T09:38:34;101386.31;;;16.45;44.37
39435;BME280;66825;51.880;-0.518;2023-01-31T09:41:02;101374.66;;;16.44;42.76
39435;BME280;66825;51.880;-0.518;2023-01-31T09:43:32;101333.03;;;16.28;42.35
39435;BME280;66825;51.880;-0.518;2023-01-31T09:46:02;101325.38;;;16.30;42.66
39435;BME280;66825;51.880;-0.518;2023-01-31T09:48:31;101374.69;;;16.70;42.26
39435;BME280;66825;51.880;-0.518;2023-01-31T09:51:00;101343.94;;;16.59;42.02
39435;BME280;66825;51.880;-0.518;2023-01-31T09:53:30;101352.91;;;16.75;42.29
39435;BME280;66825;51.880;-0.518;2023-01-31T09:58:37;101385.59;;;16.96;42.49
39435;BME280;66825;51.880;-0.518;2023-01-31T10:06:51;101385.84;;;17.20;41.50
39435;BME280;66825;51.880;-0.518;2023-01-31T10:12:39;101374.38;;;17.28;40.68
39435;BME280;66825;51.880;-0.518;2023-01-31T10:15:37;101378.19;;;17.33;41.16
39435;BME280;66825;51.880;-0.518;2023-01-31T10:18:10;101306.88;;;16.89;41.45
39435;BME280;66825;51.880;-0.518;2023-01-31T10:21:03;101371.34;;;17.40;41.34
39435;BME280;66825;51.880;-0.518;2023-01-31T10:23:55;101369.16;;;17.48;41.17
39435;BME280;66825;51.880;-0.518;2023-01-31T10:26:27;101363.69;;;17.53;41.22
39435;BME280;66825;51.880;-0.518;2023-01-31T10:29:03;101362.06;;;17.52;40.69
39435;BME280;66825;51.880;-0.518;2023-01-31T10:31:39;101285.38;;;17.08;40.53
39435;BME280;66825;51.880;-0.518;2023-01-31T10:34:18;101307.94;;;17.19;40.29
39435;BME280;66825;51.880;-0.518;2023-01-31T10:36:57;101354.69;;;17.57;40.23
39435;BME280;66825;51.880;-0.518;2023-01-31T10:39:31;101355.50;;;17.63;40.33
39435;BME280;66825;51.880;-0.518;2023-01-31T10:44:52;101363.03;;;17.82;40.72
39435;BME280;66825;51.880;-0.518;2023-01-31T10:47:23;101358.09;;;17.89;40.27
39435;BME280;66825;51.880;-0.518;2023-01-31T10:49:49;101320.00;;;17.73;40.22
39435;BME280;66825;51.880;-0.518;2023-01-31T10:57:53;101333.75;;;18.08;40.30
39435;BME280;66825;51.880;-0.518;2023-01-31T11:00:27;101335.94;;;18.11;40.61
39435;BME280;66825;51.880;-0.518;2023-01-31T11:02:53;101334.25;;;18.15;40.21
39435;BME280;66825;51.880;-0.518;2023-01-31T11:05:20;101339.97;;;18.19;40.14
39435;BME280;66825;51.880;-0.518;2023-01-31T11:07:47;101335.84;;;18.21;40.58
39435;BME280;66825;51.880;-0.518;2023-01-31T11:10:29;101321.09;;;18.28;41.56
39435;BME280;66825;51.880;-0.518;2023-01-31T11:13:00;101316.16;;;18.30;42.11
39435;BME280;66825;51.880;-0.518;2023-01-31T11:15:36;101299.28;;;18.28;41.52
39435;BME280;66825;51.880;-0.518;2023-01-31T11:18:03;101308.97;;;18.44;41.19
39435;BME280;66825;51.880;-0.518;2023-01-31T11:20:43;101323.91;;;18.52;40.99
39435;BME280;66825;51.880;-0.518;2023-01-31T11:23:13;101223.16;;;17.91;40.60
39435;BME280;66825;51.880;-0.518;2023-01-31T11:25:46;101310.03;;;18.48;40.36
39435;BME280;66825;51.880;-0.518;2023-01-31T11:28:22;101239.66;;;18.10;40.83
39435;BME280;66825;51.880;-0.518;2023-01-31T11:30:50;101306.09;;;18.65;40.67
39435;BME280;66825;51.880;-0.518;2023-01-31T11:33:55;101302.19;;;18.71;40.12
39435;BME280;66825;51.880;-0.518;2023-01-31T11:36:20;101305.44;;;18.73;40.03
39435;BME280;66825;51.880;-0.518;2023-01-31T11:38:48;101307.06;;;18.74;39.72
39435;BME280;66825;51.880;-0.518;2023-01-31T11:41:30;101313.88;;;18.77;40.25
39435;BME280;66825;51.880;-0.518;2023-01-31T11:44:15;101308.16;;;18.78;40.16
39435;BME280;66825;51.880;-0.518;2023-01-31T11:46:45;101289.72;;;18.65;40.15
39435;BME280;66825;51.880;-0.518;2023-01-31T11:49:30;101312.22;;;18.81;39.95
39435;BME280;66825;51.880;-0.518;2023-01-31T11:52:00;101288.31;;;18.67;40.04
39435;BME280;66825;51.880;-0.518;2023-01-31T11:54:30;101210.69;;;18.20;39.42
39435;BME280;66825;51.880;-0.518;2023-01-31T11:56:58;101219.09;;;18.23;40.06
39435;BME280;66825;51.880;-0.518;2023-01-31T11:59:28;101316.34;;;18.78;39.75
39435;BME280;66825;51.880;-0.518;2023-01-31T12:01:56;101326.63;;;18.86;40.08
39435;BME280;66825;51.880;-0.518;2023-01-31T12:04:28;101319.78;;;18.89;39.78
39435;BME280;66825;51.880;-0.518;2023-01-31T12:07:03;101175.44;;;17.94;39.37
39435;BME280;66825;51.880;-0.518;2023-01-31T12:09:39;101318.16;;;18.88;39.31
39435;BME280;66825;51.880;-0.518;2023-01-31T12:14:49;101320.41;;;18.81;39.26
39435;BME280;66825;51.880;-0.518;2023-01-31T12:17:16;101312.03;;;18.72;38.99
39435;BME280;66825;51.880;-0.518;2023-01-31T12:22:24;101268.31;;;18.42;38.88
39435;BME280;66825;51.880;-0.518;2023-01-31T12:25:03;101314.84;;;18.62;39.23
39435;BME280;66825;51.880;-0.518;2023-01-31T12:31:15;101321.63;;;18.64;39.74
39435;BME280;66825;51.880;-0.518;2023-01-31T12:34:38;101275.97;;;18.40;39.65
39435;BME280;66825;51.880;-0.518;2023-01-31T12:42:18;101319.75;;;18.60;39.82
39435;BME280;66825;51.880;-0.518;2023-01-31T12:45:10;101366.88;;;18.76;39.24
39435;BME280;66825;51.880;-0.518;2023-01-31T12:48:01;101287.25;;;18.29;38.75
39435;BME280;66825;51.880;-0.518;2023-01-31T12:50:47;101357.59;;;18.71;39.10
39435;BME280;66825;51.880;-0.518;2023-01-31T12:56:03;101353.00;;;18.67;39.65
39435;BME280;66825;51.880;-0.518;2023-01-31T12:58:40;101359.53;;;18.66;39.30
39435;BME280;66825;51.880;-0.518;2023-01-31T13:01:11;101351.66;;;18.64;38.82
39435;BME280;66825;51.880;-0.518;2023-01-31T13:04:25;101340.19;;;18.62;38.71
39435;BME280;66825;51.880;-0.518;2023-01-31T13:06:49;101336.50;;;18.48;39.30
39435;BME280;66825;51.880;-0.518;2023-01-31T13:09:29;101340.53;;;18.55;38.85
39435;BME280;66825;51.880;-0.518;2023-01-31T13:12:03;101340.84;;;18.54;38.72
39435;BME280;66825;51.880;-0.518;2023-01-31T13:14:36;101343.03;;;18.52;39.00
39435;BME280;66825;51.880;-0.518;2023-01-31T13:17:04;101334.84;;;18.47;39.08
39435;BME280;66825;51.880;-0.518;2023-01-31T13:19:48;101348.78;;;18.50;38.93
39435;BME280;66825;51.880;-0.518;2023-01-31T13:22:38;101337.31;;;18.48;39.32
39435;BME280;66825;51.880;-0.518;2023-01-31T13:28:12;101340.06;;;18.48;39.16
39435;BME280;66825;51.880;-0.518;2023-01-31T13:30:45;101333.75;;;18.48;39.81
39435;BME280;66825;51.880;-0.518;2023-01-31T13:33:50;101305.28;;;18.24;39.65
39435;BME280;66825;51.880;-0.518;2023-01-31T13:36:37;101348.78;;;18.50;39.43
39435;BME280;66825;51.880;-0.518;2023-01-31T13:39:18;101325.38;;;18.39;39.49
39435;BME280;66825;51.880;-0.518;2023-01-31T13:41:45;101328.91;;;18.39;39.52
39435;BME280;66825;51.880;-0.518;2023-01-31T13:44:12;101369.94;;;18.64;39.42
39435;BME280;66825;51.880;-0.518;2023-01-31T13:46:51;101375.91;;;18.66;39.26
39435;BME280;66825;51.880;-0.518;2023-01-31T13:51:56;101369.66;;;18.65;38.92
39435;BME280;66825;51.880;-0.518;2023-01-31T13:54:42;101350.97;;;18.48;39.00
39435;BME280;66825;51.880;-0.518;2023-01-31T13:57:23;101372.44;;;18.60;38.95
39435;BME280;66825;51.880;-0.518;2023-01-31T13:59:53;101352.38;;;18.40;38.77
39435;BME280;66825;51.880;-0.518;2023-01-31T14:02:20;101367.34;;;18.43;38.79
39435;BME280;66825;51.880;-0.518;2023-01-31T14:04:45;101387.50;;;18.52;38.84
39435;BME280;66825;51.880;-0.518;2023-01-31T14:07:13;101291.31;;;17.91;39.06
39435;BME280;66825;51.880;-0.518;2023-01-31T14:14:44;101383.66;;;18.53;38.62
39435;BME280;66825;51.880;-0.518;2023-01-31T14:22:36;101306.53;;;18.03;38.38
39435;BME280;66825;51.880;-0.518;2023-01-31T14:27:41;101397.06;;;18.50;38.47
39435;BME280;66825;51.880;-0.518;2023-01-31T14:30:21;101384.81;;;18.47;37.86
39435;BME280;66825;51.880;-0.518;2023-01-31T14:36:16;101390.56;;;18.40;37.42
39435;BME280;66825;51.880;-0.518;2023-01-31T14:39:16;101293.25;;;17.81;37.13
39435;BME280;66825;51.880;-0.518;2023-01-31T14:58:34;101303.31;;;17.96;39.94
39435;BME280;66825;51.880;-0.518;2023-01-31T15:01:03;101358.66;;;18.41;38.10